Time;durP1;ratioP1;P1;durP2;ratioP2;P2;SDS_P1;SDS_P2;PMS_P1;PMS_P2;Temp;Humidity;BMP_temperature;BMP_pressure;BME280_temperature;BME280_humidity;BME280_pressure;Samples;Min_cycle;Max_cycle;Signal;HPM_P1;HPM_P2
2022/04/15 00:00:38;;;;;;;3.03;2.27;;;;;;;;;;7369805;19;20433;-78
2022/04/15 00:03:08;;;;;;;6.40;2.40;;;;;;;;;;7365992;19;20440;-78
2022/04/15 00:05:45;;;;;;;2.80;2.60;;;;;;;;;;7370231;19;20412;-79
2022/04/15 00:08:15;;;;;;;3.43;2.50;;;;;;;;;;7373209;19;20450;-78
2022/04/15 00:10:46;;;;;;;3.90;2.40;;;;;;;;;;7366792;19;20506;-78
2022/04/15 00:13:24;;;;;;;5.60;2.20;;;;;;;;;;7369760;19;20784;-80
2022/04/15 00:15:54;;;;;;;2.07;1.87;;;;;;;;;;7368991;19;20513;-77
2022/04/15 00:18:25;;;;;;;3.37;2.00;;;;;;;;;;7367591;19;20793;-77
2022/04/15 00:20:57;;;;;;;4.57;2.30;;;;;;;;;;7366559;19;20877;-77
2022/04/15 00:23:30;;;;;;;3.53;2.97;;;;;;;;;;7371012;19;20419;-78
2022/04/15 00:26:02;;;;;;;4.63;2.40;;;;;;;;;;7369892;19;20400;-77
2022/04/15 00:28:58;;;;;;;2.80;2.60;;;;;;;;;;7373099;19;20407;-78
2022/04/15 00:31:29;;;;;;;3.57;2.77;;;;;;;;;;7373926;19;20446;-78
2022/04/15 00:33:59;;;;;;;2.10;1.87;;;;;;;;;;7375275;19;20475;-78
2022/04/15 00:36:29;;;;;;;2.67;2.23;;;;;;;;;;7374926;19;20404;-78
2022/04/15 00:39:03;;;;;;;2.20;2.00;;;;;;;;;;7369306;19;20853;-79
2022/04/15 00:41:32;;;;;;;2.33;2.13;;;;;;;;;;7374765;19;20408;-79
2022/04/15 00:44:05;;;;;;;4.30;2.57;;;;;;;;;;7372276;19;21214;-78
2022/04/15 00:46:34;;;;;;;5.83;2.07;;;;;;;;;;7373758;19;20423;-78
2022/04/15 00:49:04;;;;;;;7.33;2.40;;;;;;;;;;7376253;19;20420;-78
2022/04/15 00:51:35;;;;;;;3.83;2.27;;;;;;;;;;7370049;19;20816;-80
2022/04/15 00:54:06;;;;;;;5.60;2.33;;;;;;;;;;7376095;19;20388;-80
2022/04/15 00:56:38;;;;;;;2.53;2.33;;;;;;;;;;7371479;19;20408;-79
2022/04/15 00:59:15;;;;;;;3.33;2.53;;;;;;;;;;7371563;19;20403;-78
2022/04/15 01:01:47;;;;;;;4.47;2.50;;;;;;;;;;7373957;19;20422;-78
2022/04/15 01:04:18;;;;;;;2.30;2.00;;;;;;;;;;7371946;19;20907;-79
2022/04/15 01:06:50;;;;;;;4.47;2.13;;;;;;;;;;7377006;19;20955;-77
2022/04/15 01:09:20;;;;;;;3.73;2.17;;;;;;;;;;7372634;19;20401;-78
2022/04/15 01:12:09;;;;;;;2.47;2.20;;;;;;;;;;7367662;19;20415;-78
2022/04/15 01:14:45;;;;;;;2.33;2.13;;;;;;;;;;7373335;19;20408;-78
2022/04/15 01:17:17;;;;;;;3.60;2.63;;;;;;;;;;7371321;19;20445;-78
2022/04/15 01:19:46;;;;;;;4.40;2.57;;;;;;;;;;7367685;19;20445;-78
2022/04/15 01:22:21;;;;;;;2.87;2.10;;;;;;;;;;7373541;19;20504;-78
2022/04/15 01:24:53;;;;;;;2.23;2.03;;;;;;;;;;7374768;19;20419;-78
2022/04/15 01:27:29;;;;;;;3.73;2.33;;;;;;;;;;7374551;19;20536;-78
2022/04/15 01:30:01;;;;;;;2.97;2.20;;;;;;;;;;7369690;19;20833;-78
2022/04/15 01:32:31;;;;;;;2.00;1.80;;;;;;;;;;7372575;19;20364;-78
2022/04/15 01:35:03;;;;;;;4.67;2.10;;;;;;;;;;7375873;19;20408;-78
2022/04/15 01:37:34;;;;;;;3.57;2.30;;;;;;;;;;7375284;19;20928;-79
2022/04/15 01:40:06;;;;;;;3.93;2.30;;;;;;;;;;7364326;19;20423;-79
2022/04/15 01:42:39;;;;;;;5.90;1.97;;;;;;;;;;7376436;19;20403;-78
2022/04/15 01:45:11;;;;;;;2.57;2.23;;;;;;;;;;7367454;19;20410;-79
2022/04/15 01:47:43;;;;;;;11.60;2.60;;;;;;;;;;7375444;19;20528;-78
2022/04/15 01:50:15;;;;;;;3.03;2.47;;;;;;;;;;7373158;19;20428;-78
2022/04/15 01:52:45;;;;;;;3.13;2.37;;;;;;;;;;7372032;19;20392;-78
2022/04/15 01:55:22;;;;;;;2.70;2.20;;;;;;;;;;7369970;19;21109;-78
2022/04/15 01:57:54;;;;;;;3.23;2.97;;;;;;;;;;7369575;19;20760;-78
2022/04/15 02:00:26;;;;;;;3.93;2.13;;;;;;;;;;7368190;19;20431;-78
2022/04/15 02:02:57;;;;;;;2.73;2.53;;;;;;;;;;7373503;19;20392;-78
2022/04/15 02:05:27;;;;;;;8.23;2.93;;;;;;;;;;7372000;19;20404;-79
2022/04/15 02:07:59;;;;;;;4.57;2.80;;;;;;;;;;7370443;19;20416;-78
2022/04/15 02:10:31;;;;;;;4.20;2.60;;;;;;;;;;7367787;19;20423;-79
2022/04/15 02:13:03;;;;;;;3.20;2.50;;;;;;;;;;7375534;19;20408;-78
2022/04/15 02:15:35;;;;;;;5.63;2.37;;;;;;;;;;7370840;19;20420;-79
2022/04/15 02:18:08;;;;;;;3.03;2.17;;;;;;;;;;7401350;19;20420;-79
2022/04/15 02:20:37;;;;;;;4.00;2.80;;;;;;;;;;7407977;19;21002;-79
2022/04/15 02:23:07;;;;;;;4.50;2.70;;;;;;;;;;7407364;19;20400;-78
2022/04/15 02:25:39;;;;;;;4.20;2.50;;;;;;;;;;7404644;19;20431;-78
2022/04/15 02:28:09;;;;;;;3.07;2.77;;;;;;;;;;7405692;19;20408;-79
2022/04/15 02:30:38;;;;;;;3.50;2.77;;;;;;;;;;7398766;19;20455;-79
2022/04/15 02:33:10;;;;;;;3.87;2.40;;;;;;;;;;7381461;19;20408;-78
2022/04/15 02:35:40;;;;;;;2.80;2.57;;;;;;;;;;7393783;19;20480;-79
2022/04/15 02:38:14;;;;;;;5.17;3.17;;;;;;;;;;7398374;19;20427;-79
2022/04/15 02:40:47;;;;;;;5.07;2.93;;;;;;;;;;7396240;19;20492;-79
2022/04/15 02:43:17;;;;;;;4.03;2.50;;;;;;;;;;7393926;19;20431;-79
2022/04/15 02:45:50;;;;;;;4.17;2.97;;;;;;;;;;7392739;19;20445;-79
2022/04/15 02:48:22;;;;;;;10.07;4.60;;;;;;;;;;7395139;19;20491;-79
2022/04/15 02:50:58;;;;;;;3.50;2.67;;;;;;;;;;7378629;19;21267;-79
2022/04/15 02:53:30;;;;;;;4.10;2.83;;;;;;;;;;7376146;19;20423;-78
2022/04/15 02:56:02;;;;;;;4.97;3.33;;;;;;;;;;7373967;19;20426;-78
2022/04/15 02:58:34;;;;;;;6.00;2.70;;;;;;;;;;7372685;19;20894;-79
2022/04/15 03:01:08;;;;;;;6.20;3.30;;;;;;;;;;7372161;19;21158;-78
2022/04/15 03:03:41;;;;;;;4.10;2.77;;;;;;;;;;7368583;19;20443;-81
2022/04/15 03:06:11;;;;;;;3.43;2.80;;;;;;;;;;7368781;19;21462;-78
2022/04/15 03:08:42;;;;;;;4.20;2.97;;;;;;;;;;7366731;19;20458;-77
2022/04/15 03:11:14;;;;;;;3.70;2.77;;;;;;;;;;7365857;19;20408;-77
2022/04/15 03:13:47;;;;;;;4.50;2.37;;;;;;;;;;7360682;19;20411;-78
2022/04/15 03:16:17;;;;;;;4.20;2.67;;;;;;;;;;7370138;19;20405;-77
2022/04/15 03:18:48;;;;;;;9.17;3.57;;;;;;;;;;7374024;19;20416;-77
2022/04/15 03:21:18;;;;;;;4.27;2.60;;;;;;;;;;7374217;19;20376;-77
2022/04/15 03:23:53;;;;;;;3.20;2.90;;;;;;;;;;7372502;19;20387;-78
2022/04/15 03:26:28;;;;;;;4.60;3.13;;;;;;;;;;7372240;19;20421;-78
2022/04/15 03:28:57;;;;;;;4.17;3.20;;;;;;;;;;7370543;19;20380;-77
2022/04/15 03:31:29;;;;;;;6.13;3.53;;;;;;;;;;7368874;19;21169;-79
2022/04/15 03:33:59;;;;;;;3.60;3.10;;;;;;;;;;7374111;19;20384;-78
2022/04/15 03:36:31;;;;;;;3.90;2.77;;;;;;;;;;7372683;19;20404;-78
2022/04/15 03:39:05;;;;;;;4.67;3.10;;;;;;;;;;7372552;19;20380;-78
2022/04/15 03:41:37;;;;;;;4.43;2.80;;;;;;;;;;7372114;19;20396;-77
2022/04/15 03:44:07;;;;;;;5.70;3.07;;;;;;;;;;7371736;19;20956;-78
2022/04/15 03:46:40;;;;;;;4.80;2.70;;;;;;;;;;7371313;19;20455;-80
2022/04/15 03:49:10;;;;;;;3.50;3.10;;;;;;;;;;7370049;19;20404;-78
2022/04/15 03:51:39;;;;;;;3.67;3.23;;;;;;;;;;7371964;19;20380;-78
2022/04/15 03:54:09;;;;;;;3.47;3.07;;;;;;;;;;7372193;19;20387;-78
2022/04/15 03:56:43;;;;;;;5.43;3.30;;;;;;;;;;7372162;19;20419;-77
2022/04/15 03:59:15;;;;;;;4.30;3.13;;;;;;;;;;7370284;19;20421;-77
2022/04/15 04:01:49;;;;;;;5.60;3.60;;;;;;;;;;7370436;19;20379;-76
2022/04/15 04:04:19;;;;;;;5.80;3.57;;;;;;;;;;7376093;19;20471;-76
2022/04/15 04:06:48;;;;;;;5.10;2.90;;;;;;;;;;7380220;19;20360;-76
2022/04/15 04:09:18;;;;;;;4.53;3.40;;;;;;;;;;7378795;19;20505;-77
2022/04/15 04:11:50;;;;;;;4.00;3.60;;;;;;;;;;7376243;19;20380;-77
2022/04/15 04:14:22;;;;;;;6.53;2.97;;;;;;;;;;7374429;19;20402;-77
2022/04/15 04:16:54;;;;;;;5.33;3.17;;;;;;;;;;7373451;19;20927;-77
2022/04/15 04:19:26;;;;;;;4.57;3.63;;;;;;;;;;7375392;19;20444;-77
2022/04/15 04:22:19;;;;;;;4.00;3.60;;;;;;;;;;7379209;19;20421;-76
2022/04/15 04:24:51;;;;;;;4.23;2.80;;;;;;;;;;7371104;19;20436;-77
2022/04/15 04:27:26;;;;;;;4.13;3.23;;;;;;;;;;7375152;19;20368;-77
2022/04/15 04:29:56;;;;;;;8.00;3.70;;;;;;;;;;7377172;19;20412;-77
2022/04/15 04:32:27;;;;;;;5.60;3.67;;;;;;;;;;7363906;19;20821;-77
2022/04/15 04:34:59;;;;;;;5.60;3.50;;;;;;;;;;7371725;19;20805;-77
2022/04/15 04:37:31;;;;;;;6.67;3.77;;;;;;;;;;7368225;19;21068;-77
2022/04/15 04:40:00;;;;;;;4.27;3.57;;;;;;;;;;7368489;19;20416;-77
2022/04/15 04:42:35;;;;;;;4.37;3.30;;;;;;;;;;7369373;19;20434;-81
2022/04/15 04:45:04;;;;;;;5.70;3.67;;;;;;;;;;7375432;19;20420;-80
2022/04/15 04:47:34;;;;;;;4.43;3.73;;;;;;;;;;7376615;19;20414;-79
2022/04/15 04:50:08;;;;;;;5.13;3.63;;;;;;;;;;7376919;19;20412;-79
2022/04/15 04:52:38;;;;;;;5.47;3.73;;;;;;;;;;7374587;19;20388;-79
2022/04/15 04:55:08;;;;;;;7.43;4.50;;;;;;;;;;7373665;19;20828;-78
2022/04/15 04:57:44;;;;;;;5.20;4.53;;;;;;;;;;7374394;19;20403;-81
2022/04/15 05:00:14;;;;;;;7.20;4.60;;;;;;;;;;7371968;19;20423;-81
2022/04/15 05:02:47;;;;;;;6.37;4.47;;;;;;;;;;7372620;19;20827;-80
2022/04/15 05:05:21;;;;;;;6.03;4.43;;;;;;;;;;7375006;19;20415;-78
2022/04/15 05:07:53;;;;;;;5.77;4.80;;;;;;;;;;7366730;19;20500;-83
2022/04/15 05:10:25;;;;;;;6.20;4.20;;;;;;;;;;7366358;19;21443;-81
2022/04/15 05:12:59;;;;;;;6.93;4.07;;;;;;;;;;7362213;19;20408;-81
2022/04/15 05:15:28;;;;;;;8.00;4.10;;;;;;;;;;7368141;19;21270;-81
2022/04/15 05:18:00;;;;;;;5.30;4.37;;;;;;;;;;7364579;19;21473;-80
2022/04/15 05:20:39;;;;;;;6.47;4.20;;;;;;;;;;7363637;19;20430;-80
2022/04/15 05:23:08;;;;;;;5.80;4.00;;;;;;;;;;7368648;19;20424;-79
2022/04/15 05:25:38;;;;;;;8.77;4.60;;;;;;;;;;7363922;19;20460;-80
2022/04/15 05:28:10;;;;;;;7.43;4.70;;;;;;;;;;7362377;19;20400;-80
2022/04/15 05:30:40;;;;;;;7.27;4.50;;;;;;;;;;7362428;19;20864;-80
2022/04/15 05:33:11;;;;;;;7.60;4.03;;;;;;;;;;7365699;19;20981;-81
2022/04/15 05:35:41;;;;;;;9.93;4.37;;;;;;;;;;7366134;19;20411;-80
2022/04/15 05:38:10;;;;;;;5.50;4.20;;;;;;;;;;7364653;19;21405;-79
2022/04/15 05:40:40;;;;;;;8.53;4.20;;;;;;;;;;7368324;19;20487;-79
2022/04/15 05:43:15;;;;;;;6.20;4.73;;;;;;;;;;7370682;19;20423;-79
2022/04/15 05:45:50;;;;;;;5.80;4.37;;;;;;;;;;7367250;19;21000;-80
2022/04/15 05:48:22;;;;;;;7.37;4.90;;;;;;;;;;7367061;19;20412;-79
2022/04/15 05:50:51;;;;;;;8.70;3.90;;;;;;;;;;7363291;19;20413;-78
2022/04/15 05:53:26;;;;;;;4.37;3.53;;;;;;;;;;7374957;19;21008;-77
2022/04/15 05:55:57;;;;;;;7.50;4.37;;;;;;;;;;7366111;19;20411;-80
2022/04/15 05:58:30;;;;;;;6.87;4.67;;;;;;;;;;7363985;19;20481;-78
2022/04/15 06:01:03;;;;;;;5.30;4.43;;;;;;;;;;7356449;19;20404;-74
2022/04/15 06:03:34;;;;;;;4.63;3.83;;;;;;;;;;7361797;19;20424;-82
2022/04/15 06:06:04;;;;;;;6.17;5.00;;;;;;;;;;7366871;19;21065;-79
2022/04/15 06:08:34;;;;;;;5.13;4.63;;;;;;;;;;7367560;19;20408;-80
2022/04/15 06:11:05;;;;;;;5.97;4.77;;;;;;;;;;7361885;19;20421;-80
2022/04/15 06:13:47;;;;;;;5.10;4.57;;;;;;;;;;7369121;19;20406;-77
2022/04/15 06:16:20;;;;;;;4.63;4.17;;;;;;;;;;7365074;19;20407;-77
2022/04/15 06:18:59;;;;;;;5.07;4.20;;;;;;;;;;7369968;19;20417;-79
2022/04/15 06:21:31;;;;;;;6.63;5.07;;;;;;;;;;7369445;19;20438;-83
2022/04/15 06:24:06;;;;;;;6.00;4.83;;;;;;;;;;7372350;19;20404;-85
2022/04/15 06:26:36;;;;;;;7.47;4.93;;;;;;;;;;7365989;19;20408;-78
2022/04/15 06:29:08;;;;;;;8.77;4.30;;;;;;;;;;7363451;19;20400;-77
2022/04/15 06:31:38;;;;;;;6.27;4.57;;;;;;;;;;7360379;19;20412;-80
2022/04/15 06:34:07;;;;;;;6.80;4.87;;;;;;;;;;7361750;19;20404;-77
2022/04/15 06:36:41;;;;;;;12.20;6.03;;;;;;;;;;7361153;19;20423;-77
2022/04/15 06:39:16;;;;;;;8.47;5.00;;;;;;;;;;7361759;19;20435;-78
2022/04/15 06:42:05;;;;;;;6.70;6.00;;;;;;;;;;7362436;19;20512;-81
2022/04/15 06:44:42;;;;;;;9.07;6.90;;;;;;;;;;7359699;19;20409;-81
2022/04/15 06:47:11;;;;;;;10.80;7.87;;;;;;;;;;7359213;19;20406;-79
2022/04/15 06:49:43;;;;;;;11.70;8.17;;;;;;;;;;7368041;19;20423;-82
2022/04/15 06:52:13;;;;;;;10.27;7.30;;;;;;;;;;7358133;19;21265;-75
2022/04/15 06:54:43;;;;;;;8.63;7.80;;;;;;;;;;7356210;19;20776;-80
2022/04/15 06:57:15;;;;;;;9.17;6.97;;;;;;;;;;7356348;19;20392;-81
2022/04/15 06:59:47;;;;;;;8.43;7.63;;;;;;;;;;7361192;19;20421;-78
2022/04/15 07:02:17;;;;;;;8.67;6.70;;;;;;;;;;7367315;19;20455;-82
2022/04/15 07:04:52;;;;;;;9.03;7.90;;;;;;;;;;7362981;19;20410;-84
2022/04/15 07:07:26;;;;;;;9.53;7.90;;;;;;;;;;7364526;19;20390;-83
2022/04/15 07:10:01;;;;;;;9.53;7.77;;;;;;;;;;7360766;19;20428;-75
2022/04/15 07:12:30;;;;;;;9.30;7.80;;;;;;;;;;7356565;19;20416;-74
2022/04/15 07:15:03;;;;;;;11.10;8.70;;;;;;;;;;7362176;19;20420;-74
2022/04/15 07:17:32;;;;;;;8.73;7.20;;;;;;;;;;7364552;19;20763;-75
2022/04/15 07:20:08;;;;;;;11.50;8.70;;;;;;;;;;7355115;19;20407;-74
2022/04/15 07:23:06;;;;;;;12.53;8.27;;;;;;;;;;7357789;19;20427;-75
2022/04/15 07:25:36;;;;;;;14.57;7.87;;;;;;;;;;7360487;19;20420;-75
2022/04/15 07:28:08;;;;;;;8.30;7.20;;;;;;;;;;7360769;19;21192;-75
2022/04/15 07:30:40;;;;;;;10.50;8.40;;;;;;;;;;7358943;19;20536;-75
2022/04/15 07:33:10;;;;;;;12.00;8.10;;;;;;;;;;7346644;19;20411;-75
2022/04/15 07:35:39;;;;;;;8.47;7.57;;;;;;;;;;7360540;19;20436;-75
2022/04/15 07:38:09;;;;;;;11.30;10.07;;;;;;;;;;7364297;19;20375;-75
2022/04/15 07:40:38;;;;;;;11.90;9.03;;;;;;;;;;7369929;19;20415;-75
2022/04/15 07:43:09;;;;;;;12.23;8.90;;;;;;;;;;7371529;19;20413;-75
2022/04/15 07:45:43;;;;;;;11.70;10.50;;;;;;;;;;7372318;19;20431;-75
2022/04/15 07:48:13;;;;;;;9.77;8.83;;;;;;;;;;7368764;19;20384;-75
2022/04/15 07:50:45;;;;;;;13.83;9.77;;;;;;;;;;7368163;19;20429;-75
2022/04/15 07:53:15;;;;;;;12.20;10.53;;;;;;;;;;7368674;19;20429;-75
2022/04/15 07:55:45;;;;;;;11.50;10.30;;;;;;;;;;7370623;19;20483;-75
2022/04/15 07:58:14;;;;;;;11.20;8.60;;;;;;;;;;7370979;19;20379;-75
2022/04/15 08:00:46;;;;;;;10.57;8.67;;;;;;;;;;7362696;19;20495;-75
2022/04/15 08:03:17;;;;;;;9.47;8.20;;;;;;;;;;7365788;19;20396;-75
2022/04/15 08:05:49;;;;;;;12.20;10.47;;;;;;;;;;7371175;19;20427;-76
2022/04/15 08:08:18;;;;;;;9.37;8.20;;;;;;;;;;7369739;19;20384;-75
2022/04/15 08:10:50;;;;;;;10.57;8.93;;;;;;;;;;7370132;19;20840;-75
2022/04/15 08:13:24;;;;;;;11.97;9.93;;;;;;;;;;7368215;19;20411;-75
2022/04/15 08:15:59;;;;;;;9.47;8.50;;;;;;;;;;7371359;19;20533;-75
2022/04/15 08:18:31;;;;;;;11.63;9.60;;;;;;;;;;7371161;19;20408;-75
2022/04/15 08:21:00;;;;;;;14.17;9.93;;;;;;;;;;7369071;19;20540;-75
2022/04/15 08:23:32;;;;;;;11.47;9.63;;;;;;;;;;7367487;19;20433;-76
2022/04/15 08:26:04;;;;;;;10.80;9.80;;;;;;;;;;7367816;19;20386;-75
2022/04/15 08:28:36;;;;;;;12.80;10.77;;;;;;;;;;7369503;19;20414;-76
2022/04/15 08:31:09;;;;;;;11.63;10.40;;;;;;;;;;7366961;19;21244;-76
2022/04/15 08:33:40;;;;;;;11.33;9.97;;;;;;;;;;7370344;19;20857;-76
2022/04/15 08:36:10;;;;;;;11.60;10.40;;;;;;;;;;7372052;19;20387;-75
2022/04/15 08:38:42;;;;;;;11.43;9.70;;;;;;;;;;7370703;19;20947;-76
2022/04/15 08:41:15;;;;;;;10.37;9.37;;;;;;;;;;7368449;19;20404;-77
2022/04/15 08:43:47;;;;;;;10.80;9.63;;;;;;;;;;7371266;19;20418;-76
2022/04/15 08:46:21;;;;;;;11.90;10.70;;;;;;;;;;7366754;19;20419;-76
2022/04/15 08:48:54;;;;;;;12.93;11.63;;;;;;;;;;7357013;19;21129;-75
2022/04/15 08:51:24;;;;;;;12.10;11.00;;;;;;;;;;7359049;19;20428;-78
2022/04/15 08:53:54;;;;;;;13.50;12.10;;;;;;;;;;7364608;19;20414;-79
2022/04/15 08:56:26;;;;;;;11.50;10.30;;;;;;;;;;7372156;19;20404;-81
2022/04/15 08:58:55;;;;;;;12.50;10.27;;;;;;;;;;7374756;19;20409;-80
2022/04/15 09:01:33;;;;;;;12.93;11.70;;;;;;;;;;7372104;19;20416;-80
2022/04/15 09:04:06;;;;;;;12.57;10.87;;;;;;;;;;7373807;19;20963;-78
2022/04/15 09:06:38;;;;;;;12.63;10.20;;;;;;;;;;7366337;19;20427;-78
2022/04/15 09:09:11;;;;;;;12.00;10.80;;;;;;;;;;7368476;19;22695;-79
2022/04/15 09:11:46;;;;;;;14.00;12.83;;;;;;;;;;7367515;19;20419;-80
2022/04/15 09:14:16;;;;;;;12.73;11.63;;;;;;;;;;7367227;19;20940;-80
2022/04/15 09:16:49;;;;;;;12.23;11.00;;;;;;;;;;7365361;19;21015;-83
2022/04/15 09:19:22;;;;;;;20.60;14.47;;;;;;;;;;7372885;19;20433;-78
2022/04/15 09:21:55;;;;;;;14.50;11.30;;;;;;;;;;7401652;19;20404;-77
2022/04/15 09:24:30;;;;;;;11.80;10.80;;;;;;;;;;7386949;19;20929;-78
2022/04/15 09:27:00;;;;;;;14.87;13.57;;;;;;;;;;7386612;19;20412;-77
2022/04/15 09:29:34;;;;;;;11.10;10.10;;;;;;;;;;7378743;19;20437;-76
2022/04/15 09:32:14;;;;;;;11.70;10.57;;;;;;;;;;7373752;19;20395;-75
2022/04/15 09:34:56;;;;;;;11.57;10.40;;;;;;;;;;7369713;19;20372;-76
2022/04/15 09:37:32;;;;;;;11.33;10.43;;;;;;;;;;7366042;19;20404;-74
2022/04/15 09:40:08;;;;;;;12.70;11.60;;;;;;;;;;7368198;19;20411;-75
2022/04/15 09:42:46;;;;;;;11.17;10.13;;;;;;;;;;7369509;19;20459;-74
2022/04/15 09:45:16;;;;;;;11.80;10.60;;;;;;;;;;7364020;19;21483;-75
2022/04/15 09:47:57;;;;;;;13.47;12.07;;;;;;;;;;7378923;19;20423;-75
2022/04/15 09:50:29;;;;;;;11.43;10.40;;;;;;;;;;7386425;19;20813;-76
2022/04/15 09:53:28;;;;;;;10.00;9.03;;;;;;;;;;7384398;19;20416;-79
2022/04/15 09:55:57;;;;;;;10.27;9.27;;;;;;;;;;7376396;19;20405;-79
2022/04/15 09:58:32;;;;;;;9.63;8.77;;;;;;;;;;7379430;19;20420;-79
2022/04/15 10:01:06;;;;;;;12.80;11.60;;;;;;;;;;7367212;19;21186;-79
2022/04/15 10:03:45;;;;;;;7.47;6.73;;;;;;;;;;7370753;19;20428;-79
2022/04/15 10:06:16;;;;;;;9.63;8.70;;;;;;;;;;7375607;19;20415;-79
2022/04/15 10:08:49;;;;;;;11.37;10.37;;;;;;;;;;7373322;19;21421;-79
2022/04/15 10:11:19;;;;;;;7.43;6.73;;;;;;;;;;7369658;19;20931;-78
2022/04/15 10:13:51;;;;;;;7.40;6.83;;;;;;;;;;7376860;19;20404;-78
2022/04/15 10:16:21;;;;;;;13.27;12.10;;;;;;;;;;7377512;19;20403;-79
2022/04/15 10:18:53;;;;;;;11.60;10.33;;;;;;;;;;7376088;19;20440;-77
2022/04/15 10:21:23;;;;;;;12.40;11.17;;;;;;;;;;7372779;19;20424;-77
2022/04/15 10:23:53;;;;;;;8.33;7.53;;;;;;;;;;7369218;19;20413;-77
2022/04/15 10:26:26;;;;;;;8.73;7.93;;;;;;;;;;7371023;19;20412;-77
2022/04/15 10:28:56;;;;;;;12.80;11.60;;;;;;;;;;7370298;19;20419;-77
2022/04/15 10:31:26;;;;;;;11.37;10.33;;;;;;;;;;7364472;19;20440;-77
2022/04/15 10:34:11;;;;;;;11.57;10.50;;;;;;;;;;7369265;19;21165;-77
2022/04/15 10:36:41;;;;;;;10.87;9.87;;;;;;;;;;7371467;19;20424;-78
2022/04/15 10:39:14;;;;;;;8.97;8.07;;;;;;;;;;7375617;19;20396;-78
2022/04/15 10:42:05;;;;;;;9.93;8.83;;;;;;;;;;7368120;19;20435;-79
2022/04/15 10:44:39;;;;;;;8.70;7.87;;;;;;;;;;7371781;19;20420;-80
2022/04/15 10:47:29;;;;;;;9.53;8.60;;;;;;;;;;7362681;19;20404;-80
2022/04/15 10:50:03;;;;;;;8.00;7.20;;;;;;;;;;7367685;19;20407;-80
2022/04/15 10:52:36;;;;;;;8.97;7.53;;;;;;;;;;7376023;19;20422;-79
2022/04/15 10:55:10;;;;;;;8.70;7.90;;;;;;;;;;7368906;19;20428;-80
2022/04/15 10:57:43;;;;;;;7.10;6.50;;;;;;;;;;7373356;19;22103;-80
2022/04/15 11:03:04;;;;;;;9.87;8.40;;;;;;;;;;7372936;19;20411;-79
2022/04/15 11:05:55;;;;;;;10.40;8.30;;;;;;;;;;7377512;19;20907;-79
2022/04/15 11:08:28;;;;;;;10.10;9.10;;;;;;;;;;7370936;19;20408;-79
2022/04/15 11:11:04;;;;;;;10.87;9.87;;;;;;;;;;7371425;19;21080;-80
2022/04/15 11:13:35;;;;;;;10.90;8.20;;;;;;;;;;7374305;19;20439;-80
2022/04/15 11:16:13;;;;;;;7.03;5.93;;;;;;;;;;7369279;19;20404;-80
2022/04/15 11:18:50;;;;;;;6.13;5.50;;;;;;;;;;7367973;19;20419;-80
2022/04/15 11:21:27;;;;;;;7.23;6.53;;;;;;;;;;7362350;19;20413;-81
2022/04/15 11:24:00;;;;;;;7.80;7.10;;;;;;;;;;7363229;19;20411;-78
2022/04/15 11:26:32;;;;;;;7.10;6.33;;;;;;;;;;7362346;19;20512;-81
2022/04/15 11:29:05;;;;;;;7.43;6.40;;;;;;;;;;7369602;19;20764;-77
2022/04/15 11:31:35;;;;;;;6.53;5.70;;;;;;;;;;7371792;19;21229;-76
2022/04/15 11:34:08;;;;;;;7.33;6.40;;;;;;;;;;7365475;19;20409;-78
2022/04/15 11:36:41;;;;;;;7.70;6.90;;;;;;;;;;7373357;19;20399;-78
2022/04/15 11:39:13;;;;;;;7.70;6.90;;;;;;;;;;7360107;19;20414;-78
2022/04/15 11:41:47;;;;;;;6.70;6.00;;;;;;;;;;7373031;19;20746;-78
2022/04/15 11:44:20;;;;;;;6.67;5.57;;;;;;;;;;7372407;19;21365;-77
2022/04/15 11:46:50;;;;;;;9.97;6.40;;;;;;;;;;7366541;19;20420;-77
2022/04/15 11:49:23;;;;;;;7.33;6.63;;;;;;;;;;7359356;19;20408;-77
2022/04/15 11:51:56;;;;;;;7.17;6.40;;;;;;;;;;7356205;19;20392;-75
2022/04/15 11:54:26;;;;;;;8.33;7.40;;;;;;;;;;7353110;19;20427;-77
2022/04/15 11:56:57;;;;;;;8.87;7.90;;;;;;;;;;7360769;19;20431;-76
2022/04/15 11:59:30;;;;;;;6.30;5.70;;;;;;;;;;7358696;19;20408;-76
2022/04/15 12:02:04;;;;;;;6.60;5.83;;;;;;;;;;7361868;19;20401;-75
2022/04/15 12:04:36;;;;;;;6.20;5.60;;;;;;;;;;7364043;19;20423;-78
2022/04/15 12:07:19;;;;;;;6.90;5.43;;;;;;;;;;7369669;19;20475;-77
2022/04/15 12:09:49;;;;;;;6.93;6.33;;;;;;;;;;7366214;19;20404;-76
2022/04/15 12:12:19;;;;;;;5.80;5.30;;;;;;;;;;7364729;19;20400;-76
2022/04/15 12:14:53;;;;;;;6.13;5.47;;;;;;;;;;7364463;19;20412;-76
2022/04/15 12:17:25;;;;;;;4.23;3.83;;;;;;;;;;7359957;19;20431;-75
2022/04/15 12:19:55;;;;;;;7.23;6.63;;;;;;;;;;7365796;19;20799;-75
2022/04/15 12:22:30;;;;;;;6.97;6.30;;;;;;;;;;7366702;19;20376;-75
2022/04/15 12:25:14;;;;;;;6.83;5.23;;;;;;;;;;7369065;19;21058;-76
2022/04/15 12:27:45;;;;;;;8.70;7.53;;;;;;;;;;7368779;19;20408;-76
2022/04/15 12:30:14;;;;;;;9.53;8.50;;;;;;;;;;7416793;19;20408;-79
2022/04/15 12:32:44;;;;;;;9.90;8.90;;;;;;;;;;7430951;19;20388;-81
2022/04/15 12:35:14;;;;;;;6.93;5.43;;;;;;;;;;7432735;19;20464;-80
2022/04/15 12:37:47;;;;;;;8.80;6.77;;;;;;;;;;7417763;19;20377;-78
2022/04/15 12:40:32;;;;;;;6.70;5.40;;;;;;;;;;7384657;19;20799;-76
2022/04/15 12:43:12;;;;;;;5.77;4.67;;;;;;;;;;7382907;19;20404;-80
2022/04/15 12:45:57;;;;;;;7.00;5.77;;;;;;;;;;7423977;19;20429;-81
2022/04/15 12:48:28;;;;;;;5.60;4.80;;;;;;;;;;7402502;19;20408;-80
2022/04/15 12:51:01;;;;;;;4.30;3.87;;;;;;;;;;7401993;19;20376;-80
2022/04/15 12:53:39;;;;;;;5.23;4.73;;;;;;;;;;7397983;19;20406;-80
2022/04/15 12:56:14;;;;;;;4.23;3.90;;;;;;;;;;7383207;19;20805;-79
2022/04/15 12:58:55;;;;;;;6.30;5.27;;;;;;;;;;7374070;19;20432;-79
2022/04/15 13:01:27;;;;;;;5.23;4.10;;;;;;;;;;7374944;19;20657;-82
2022/04/15 13:03:56;;;;;;;4.40;3.90;;;;;;;;;;7375162;19;20443;-80
2022/04/15 13:06:29;;;;;;;5.87;4.43;;;;;;;;;;7379389;19;21034;-80
2022/04/15 13:09:05;;;;;;;4.47;4.07;;;;;;;;;;7379733;19;20772;-79
2022/04/15 13:11:35;;;;;;;4.27;3.73;;;;;;;;;;7388312;19;20951;-83
2022/04/15 13:14:08;;;;;;;4.50;4.10;;;;;;;;;;7388021;19;20419;-86
2022/04/15 13:16:40;;;;;;;5.33;3.37;;;;;;;;;;7369208;19;20505;-87
2022/04/15 13:19:10;;;;;;;4.50;4.10;;;;;;;;;;7395715;19;20404;-86
2022/04/15 13:21:42;;;;;;;4.83;4.00;;;;;;;;;;7395876;19;20408;-85
2022/04/15 13:24:16;;;;;;;3.30;3.00;;;;;;;;;;7394620;19;20385;-84
2022/04/15 13:26:46;;;;;;;4.30;3.00;;;;;;;;;;7394200;19;20434;-83
2022/04/15 13:29:52;;;;;;;4.30;2.80;;;;;;;;;;7392755;19;20817;-84
2022/04/15 13:32:22;;;;;;;3.93;3.40;;;;;;;;;;7394025;19;20936;-86
2022/04/15 13:34:54;;;;;;;5.57;4.90;;;;;;;;;;7392954;19;20461;-85
2022/04/15 13:37:26;;;;;;;6.53;5.10;;;;;;;;;;7393965;19;20390;-82
2022/04/15 13:39:58;;;;;;;5.20;4.70;;;;;;;;;;7395063;19;20430;-85
2022/04/15 13:42:28;;;;;;;5.50;4.80;;;;;;;;;;7392261;19;20396;-85
2022/04/15 13:44:58;;;;;;;4.93;4.10;;;;;;;;;;7395194;19;20392;-86
2022/04/15 13:47:28;;;;;;;5.10;4.60;;;;;;;;;;7391593;19;20402;-85
2022/04/15 13:49:57;;;;;;;5.00;4.20;;;;;;;;;;7392209;19;20915;-86
2022/04/15 13:57:54;;;;;;;5.50;4.90;;;;;;;;;;7388539;19;20408;-82
2022/04/15 14:00:26;;;;;;;7.27;4.30;;;;;;;;;;7391706;19;20759;-82
2022/04/15 14:02:55;;;;;;;4.63;3.90;;;;;;;;;;7384181;19;20741;-82
2022/04/15 14:05:25;;;;;;;17.60;10.07;;;;;;;;;;7391224;19;20415;-82
2022/04/15 14:07:57;;;;;;;5.90;5.20;;;;;;;;;;7389963;19;20933;-81
2022/04/15 14:10:29;;;;;;;5.27;4.77;;;;;;;;;;7392721;19;20400;-81
2022/04/15 14:12:59;;;;;;;12.63;7.30;;;;;;;;;;7391180;19;20382;-82
2022/04/15 14:16:04;;;;;;;6.23;5.63;;;;;;;;;;7386994;19;20424;-81
2022/04/15 14:18:34;;;;;;;7.67;5.77;;;;;;;;;;7388565;19;20420;-82
2022/04/15 14:21:05;;;;;;;10.30;6.43;;;;;;;;;;7390683;19;20963;-82
2022/04/15 14:23:35;;;;;;;6.10;4.77;;;;;;;;;;7388874;19;20961;-82
2022/04/15 14:26:11;;;;;;;5.93;4.20;;;;;;;;;;7390164;19;20419;-81
2022/04/15 14:28:41;;;;;;;8.47;6.07;;;;;;;;;;7392535;19;20389;-82
2022/04/15 14:31:10;;;;;;;6.67;4.97;;;;;;;;;;7391014;19;20431;-81
2022/04/15 14:33:41;;;;;;;7.90;5.60;;;;;;;;;;7389988;19;20400;-80
2022/04/15 14:36:13;;;;;;;8.73;4.60;;;;;;;;;;7370655;19;20412;-76
2022/04/15 14:38:45;;;;;;;5.57;4.70;;;;;;;;;;7359328;19;20946;-76
2022/04/15 14:41:17;;;;;;;6.73;4.97;;;;;;;;;;7365871;19;20407;-76
2022/04/15 14:43:50;;;;;;;5.00;4.00;;;;;;;;;;7365489;19;20421;-76
2022/04/15 14:46:19;;;;;;;5.30;4.37;;;;;;;;;;7351690;19;20417;-79
2022/04/15 14:48:51;;;;;;;5.13;4.63;;;;;;;;;;7366659;19;20483;-80
2022/04/15 14:51:23;;;;;;;5.00;4.10;;;;;;;;;;7384976;19;20419;-81
2022/04/15 14:53:54;;;;;;;3.83;3.50;;;;;;;;;;7382637;19;21133;-80
2022/04/15 14:56:29;;;;;;;5.37;4.80;;;;;;;;;;7363872;19;21321;-79
2022/04/15 14:59:01;;;;;;;4.93;3.90;;;;;;;;;;7367372;19;20408;-81
2022/04/15 15:01:31;;;;;;;4.60;4.03;;;;;;;;;;7364315;19;20496;-79
2022/04/15 15:04:21;;;;;;;5.30;3.80;;;;;;;;;;7366512;19;20455;-81
2022/04/15 15:06:51;;;;;;;6.40;3.90;;;;;;;;;;7359853;19;20624;-84
2022/04/15 15:09:20;;;;;;;5.33;3.43;;;;;;;;;;7362625;19;20416;-87
2022/04/15 15:11:53;;;;;;;3.30;3.00;;;;;;;;;;7359879;19;20408;-78
2022/04/15 15:14:27;;;;;;;3.80;3.40;;;;;;;;;;7359920;19;20399;-78
2022/04/15 15:16:57;;;;;;;5.90;3.43;;;;;;;;;;7365204;19;20408;-82
2022/04/15 15:19:26;;;;;;;3.33;3.00;;;;;;;;;;7371685;19;20514;-86